Terminal Aerodrome Forecast
Issued by NWS Milwaukee/Sullivan, WI

Home | Current Version | Previous Version | Text Only | Print | Product List | Glossary On
Versions: 1 2 3 4 5 6 7 8 9 10 11 12 13 14 15 16 17 18 19 20 21 22 23 24 25 26 27 28 29 30 31 32 33 34 35 36 37 38 39 40 41 42 43 44 45 46
934
FTUS43 KMKX 291721
TAFMSN
TAF
KMSN 291721Z 2918/3018 08008KT P6SM OVC110
     FM292000 08011G19KT P6SM VCSH OVC080
     FM292300 07011G19KT P6SM -RA OVC060
     FM300300 07011G19KT P6SM -RA OVC030
     FM300600 08012G23KT 6SM RA OVC020
     FM300800 07012G23KT 4SM RA BR OVC015
     FM301100 08014G25KT 3SM RA BR OVC008=

USA.gov is the U.S. government's official web portal to all federal, state and local government web resources and services.